Time,TemperatureF,DewpointF,PressureIn,WindDirection,WindDirectionDegrees,WindSpeedMPH,WindSpeedGustMPH,Humidity,HourlyPrecipIn,Conditions,Clouds,dailyrainin,SoftwareType,DateUTC
2013-02-23 00:00:00,39.3,31.0,29.97,West,276,5.0,22.0,72,-0.40,,,0.00,Weather View 32 v70,2013-02-23 08:00:00,
2013-02-23 00:05:00,39.3,30.7,29.97,WSW,252,7.0,22.0,71,-0.40,,,0.00,Weather View 32 v70,2013-02-23 08:05:00,
2013-02-23 00:10:00,39.3,30.7,29.97,WNW,282,6.0,22.0,71,-0.40,,,0.00,Weather View 32 v70,2013-02-23 08:10:00,
2013-02-23 00:15:00,39.3,30.7,29.98,West,278,6.0,22.0,71,-0.40,,,0.00,Weather View 32 v70,2013-02-23 08:15:00,
2013-02-23 00:20:00,39.5,30.5,29.99,West,278,6.0,21.0,70,-0.40,,,0.00,Weather View 32 v70,2013-02-23 08:20:00,
2013-02-23 00:25:00,39.2,30.6,29.99,WNW,283,4.0,21.0,71,-0.40,,,0.00,Weather View 32 v70,2013-02-23 08:25:00,
2013-02-23 00:30:00,39.3,30.7,29.99,West,277,5.0,21.0,71,-0.40,,,0.00,Weather View 32 v70,2013-02-23 08:30:00,
2013-02-23 00:35:00,39.2,30.6,29.99,West,277,6.0,21.0,71,-0.40,,,0.00,Weather View 32 v70,2013-02-23 08:35:00,
2013-02-23 00:40:00,39.2,30.2,30.00,NW,309,2.0,21.0,70,-0.40,,,0.00,Weather View 32 v70,2013-02-23 08:40:00,
2013-02-23 00:45:00,39.5,30.2,30.01,WNW,300,1.0,21.0,69,-0.40,,,0.00,Weather View 32 v70,2013-02-23 08:45:00,
2013-02-23 00:50:00,39.5,30.2,30.01,NW,311,0.0,21.0,69,-0.40,,,0.00,Weather View 32 v70,2013-02-23 08:50:00,
2013-02-23 00:55:00,39.5,30.2,30.01,WNW,285,3.0,21.0,69,-0.40,,,0.00,Weather View 32 v70,2013-02-23 08:55:00,
2013-02-23 01:00:00,39.5,30.5,30.01,WSW,248,8.0,21.0,70,0.00,,,0.00,Weather View 32 v70,2013-02-23 09:00:00,
2013-02-23 01:05:00,39.6,30.3,30.01,WNW,301,8.0,21.0,69,0.00,,,0.00,Weather View 32 v70,2013-02-23 09:05:00,
2013-02-23 01:10:00,39.8,30.8,30.01,West,273,3.0,21.0,70,0.00,,,0.00,Weather View 32 v70,2013-02-23 09:10:00,
2013-02-23 01:15:00,39.6,31.3,30.01,WNW,292,2.0,21.0,72,0.00,,,0.00,Weather View 32 v70,2013-02-23 09:15:00,
2013-02-23 01:20:00,39.2,31.6,30.02,WSW,238,7.0,21.0,74,0.00,,,0.00,Weather View 32 v70,2013-02-23 09:20:00,
2013-02-23 01:25:00,38.6,32.0,30.02,WSW,250,8.0,20.0,77,0.01,,,0.01,Weather View 32 v70,2013-02-23 09:25:00,
2013-02-23 01:30:00,38.0,32.4,30.02,NNW,328,7.0,20.0,80,0.01,,,0.01,Weather View 32 v70,2013-02-23 09:30:00,
2013-02-23 01:35:00,37.8,32.8,30.02,WSW,244,8.0,20.0,82,0.02,,,0.02,Weather View 32 v70,2013-02-23 09:35:00,
2013-02-23 01:40:00,37.8,32.8,30.02,WSW,248,8.0,20.0,82,0.02,,,0.02,Weather View 32 v70,2013-02-23 09:40:00,
2013-02-23 01:45:00,37.8,32.8,30.01,WNW,294,1.0,20.0,82,0.02,,,0.02,Weather View 32 v70,2013-02-23 09:45:00,
2013-02-23 01:50:00,37.8,32.8,30.01,West,263,8.0,20.0,82,0.02,,,0.02,Weather View 32 v70,2013-02-23 09:50:00,
2013-02-23 01:54:00,38.0,33.0,30.01,West,281,3.0,20.0,82,0.00,,,0.02,Weather View 32 v70,2013-02-23 09:54:00,
2013-02-23 01:59:00,38.0,32.7,30.01,West,273,2.0,20.0,81,0.02,,,0.02,Weather View 32 v70,2013-02-23 09:59:00,
2013-02-23 02:04:00,38.2,32.9,30.02,West,268,6.0,24.0,81,0.02,,,0.02,Weather View 32 v70,2013-02-23 10:04:00,
2013-02-23 02:09:00,38.0,33.0,30.02,SW,236,15.0,24.0,82,0.03,,,0.03,Weather View 32 v70,2013-02-23 10:09:00,
2013-02-23 02:14:00,38.0,33.0,30.02,WNW,292,4.0,24.0,82,0.03,,,0.03,Weather View 32 v70,2013-02-23 10:14:00,
2013-02-23 02:19:00,37.9,32.9,30.01,West,272,7.0,24.0,82,0.03,,,0.03,Weather View 32 v70,2013-02-23 10:19:00,
2013-02-23 02:24:00,38.2,32.6,30.02,West,264,4.0,24.0,80,0.03,,,0.03,Weather View 32 v70,2013-02-23 10:24:00,
2013-02-23 02:29:00,38.3,32.4,30.02,WSW,238,9.0,24.0,79,0.02,,,0.03,Weather View 32 v70,2013-02-23 10:29:00,
2013-02-23 02:34:00,38.3,32.7,30.02,West,269,2.0,24.0,80,0.01,,,0.03,Weather View 32 v70,2013-02-23 10:34:00,
2013-02-23 02:39:00,38.2,32.6,30.02,West,259,7.0,24.0,80,0.02,,,0.04,Weather View 32 v70,2013-02-23 10:39:00,
2013-02-23 02:44:00,38.2,32.9,30.02,West,273,5.0,24.0,81,0.02,,,0.04,Weather View 32 v70,2013-02-23 10:44:00,
2013-02-23 02:49:00,38.0,32.7,30.02,WSW,251,6.0,24.0,81,0.02,,,0.04,Weather View 32 v70,2013-02-23 10:49:00,
2013-02-23 02:54:00,38.0,32.7,30.02,West,278,3.0,24.0,81,0.02,,,0.04,Weather View 32 v70,2013-02-23 10:54:00,
2013-02-23 02:59:00,38.2,32.3,30.03,WSW,247,1.0,24.0,79,0.02,,,0.04,Weather View 32 v70,2013-02-23 10:59:00,
2013-02-23 03:04:00,38.3,32.4,30.03,West,270,2.0,22.0,79,0.02,,,0.04,Weather View 32 v70,2013-02-23 11:04:00,
2013-02-23 03:09:00,38.3,32.4,30.03,WNW,288,4.0,22.0,79,0.01,,,0.04,Weather View 32 v70,2013-02-23 11:09:00,
2013-02-23 03:14:00,38.3,32.4,30.03,West,278,2.0,22.0,79,0.01,,,0.04,Weather View 32 v70,2013-02-23 11:14:00,
2013-02-23 03:19:00,38.3,32.4,30.03,WSW,254,3.0,22.0,79,0.01,,,0.04,Weather View 32 v70,2013-02-23 11:19:00,
2013-02-23 03:24:00,38.3,32.4,30.03,West,259,3.0,22.0,79,0.01,,,0.04,Weather View 32 v70,2013-02-23 11:24:00,
2013-02-23 03:29:00,38.3,32.4,30.03,West,259,3.0,18.0,79,0.01,,,0.04,Weather View 32 v70,2013-02-23 11:29:00,
2013-02-23 03:34:00,38.5,32.2,30.03,West,274,9.0,18.0,78,0.01,,,0.04,Weather View 32 v70,2013-02-23 11:34:00,
2013-02-23 03:39:00,38.3,32.4,30.03,NW,306,7.0,17.0,79,0.00,,,0.04,Weather View 32 v70,2013-02-23 11:39:00,
2013-02-23 03:44:00,38.3,32.4,30.03,West,281,5.0,17.0,79,0.00,,,0.04,Weather View 32 v70,2013-02-23 11:44:00,
2013-02-23 03:49:00,38.3,32.4,30.03,WNW,286,6.0,14.0,79,0.00,,,0.04,Weather View 32 v70,2013-02-23 11:49:00,
2013-02-23 03:54:00,38.3,32.4,30.03,West,266,2.0,14.0,79,0.00,,,0.04,Weather View 32 v70,2013-02-23 11:54:00,
2013-02-23 03:59:00,38.3,32.4,30.03,WNW,287,1.0,14.0,79,0.00,,,0.04,Weather View 32 v70,2013-02-23 11:59:00,
2013-02-23 04:04:00,38.3,32.4,30.04,West,271,2.0,14.0,79,0.00,,,0.04,Weather View 32 v70,2013-02-23 12:04:00,
2013-02-23 04:09:00,38.3,32.4,30.04,West,280,6.0,14.0,79,0.00,,,0.04,Weather View 32 v70,2013-02-23 12:09:00,
2013-02-23 04:14:00,38.5,32.5,30.04,WNW,292,1.0,14.0,79,0.00,,,0.04,Weather View 32 v70,2013-02-23 12:14:00,
2013-02-23 04:19:00,38.5,32.5,30.04,WNW,296,4.0,14.0,79,0.00,,,0.04,Weather View 32 v70,2013-02-23 12:19:00,
2013-02-23 04:24:00,38.3,32.7,30.04,WSW,242,7.0,14.0,80,0.00,,,0.04,Weather View 32 v70,2013-02-23 12:24:00,
2013-02-23 04:29:00,38.3,32.7,30.05,West,265,1.0,14.0,80,0.00,,,0.04,Weather View 32 v70,2013-02-23 12:29:00,
2013-02-23 04:34:00,38.3,32.7,30.05,WNW,284,0.0,14.0,80,0.00,,,0.04,Weather View 32 v70,2013-02-23 12:34:00,
2013-02-23 04:39:00,38.3,32.7,30.05,West,261,8.0,13.0,80,0.00,,,0.04,Weather View 32 v70,2013-02-23 12:39:00,
2013-02-23 04:44:00,38.3,32.7,30.06,West,264,0.0,13.0,80,0.00,,,0.04,Weather View 32 v70,2013-02-23 12:44:00,
2013-02-23 04:49:00,38.3,32.7,30.06,West,262,3.0,13.0,80,0.00,,,0.04,Weather View 32 v70,2013-02-23 12:49:00,
2013-02-23 04:54:00,38.5,32.5,30.06,West,267,1.0,13.0,79,0.00,,,0.04,Weather View 32 v70,2013-02-23 12:54:00,
2013-02-23 04:59:00,38.6,32.6,30.06,West,265,3.0,13.0,79,0.00,,,0.04,Weather View 32 v70,2013-02-23 12:59:00,
2013-02-23 05:04:00,38.8,32.8,30.07,West,261,2.0,13.0,79,0.00,,,0.05,Weather View 32 v70,2013-02-23 13:04:00,
2013-02-23 05:09:00,38.8,32.5,30.07,WNW,283,0.0,13.0,78,0.01,,,0.05,Weather View 32 v70,2013-02-23 13:09:00,
2013-02-23 05:14:00,38.8,32.5,30.07,West,263,3.0,13.0,78,0.01,,,0.05,Weather View 32 v70,2013-02-23 13:14:00,
2013-02-23 05:19:00,38.8,32.8,30.08,WNW,292,0.0,13.0,79,0.01,,,0.05,Weather View 32 v70,2013-02-23 13:19:00,
2013-02-23 05:24:00,38.8,32.8,30.08,WNW,291,2.0,11.0,79,0.01,,,0.05,Weather View 32 v70,2013-02-23 13:24:00,
2013-02-23 05:29:00,38.8,32.5,30.09,WSW,238,2.0,11.0,78,0.01,,,0.05,Weather View 32 v70,2013-02-23 13:29:00,
2013-02-23 05:34:00,38.9,32.6,30.09,NW,304,5.0,11.0,78,0.01,,,0.05,Weather View 32 v70,2013-02-23 13:34:00,
2013-02-23 05:39:00,38.9,32.9,30.10,WNW,298,0.0,11.0,79,0.01,,,0.05,Weather View 32 v70,2013-02-23 13:39:00,
2013-02-23 05:44:00,38.8,32.8,30.10,SW,232,0.0,11.0,79,0.02,,,0.06,Weather View 32 v70,2013-02-23 13:44:00,
2013-02-23 05:49:00,38.8,32.8,30.10,West,259,2.0,11.0,79,0.02,,,0.06,Weather View 32 v70,2013-02-23 13:49:00,
2013-02-23 05:54:00,38.8,32.8,30.10,West,275,1.0,11.0,79,0.02,,,0.06,Weather View 32 v70,2013-02-23 13:54:00,
2013-02-23 05:59:00,38.6,33.0,30.11,WSW,258,5.0,11.0,80,0.02,,,0.06,Weather View 32 v70,2013-02-23 13:59:00,
2013-02-23 06:04:00,38.6,33.3,30.11,WNW,284,2.0,11.0,81,0.02,,,0.06,Weather View 32 v70,2013-02-23 14:04:00,
2013-02-23 06:09:00,38.6,33.3,30.11,WNW,283,9.0,12.0,81,0.01,,,0.06,Weather View 32 v70,2013-02-23 14:09:00,
2013-02-23 06:14:00,38.6,33.3,30.12,WSW,254,7.0,12.0,81,0.01,,,0.06,Weather View 32 v70,2013-02-23 14:14:00,
2013-02-23 06:19:00,38.6,33.3,30.11,WSW,250,1.0,16.0,81,0.01,,,0.06,Weather View 32 v70,2013-02-23 14:19:00,
2013-02-23 06:24:00,38.6,33.3,30.11,WSW,238,7.0,16.0,81,0.01,,,0.06,Weather View 32 v70,2013-02-23 14:24:00,
2013-02-23 06:29:00,38.5,33.2,30.11,West,271,3.0,16.0,81,0.01,,,0.06,Weather View 32 v70,2013-02-23 14:29:00,
2013-02-23 06:34:00,38.6,33.3,30.11,West,270,3.0,16.0,81,0.01,,,0.06,Weather View 32 v70,2013-02-23 14:34:00,
2013-02-23 06:39:00,38.6,33.3,30.11,WSW,252,9.0,16.0,81,0.01,,,0.06,Weather View 32 v70,2013-02-23 14:39:00,
2013-02-23 06:44:00,38.6,33.3,30.11,West,259,13.0,16.0,81,0.01,,,0.07,Weather View 32 v70,2013-02-23 14:44:00,
2013-02-23 06:49:00,38.6,33.0,30.11,West,281,12.0,16.0,80,0.01,,,0.07,Weather View 32 v70,2013-02-23 14:49:00,
2013-02-23 06:54:00,38.9,32.9,30.10,West,261,4.0,17.0,79,0.01,,,0.07,Weather View 32 v70,2013-02-23 14:54:00,
2013-02-23 06:59:00,39.1,33.1,30.11,West,281,6.0,17.0,79,0.01,,,0.07,Weather View 32 v70,2013-02-23 14:59:00,
2013-02-23 07:04:00,38.9,32.6,30.10,West,263,5.0,17.0,78,0.01,,,0.07,Weather View 32 v70,2013-02-23 15:04:00,
2013-02-23 07:09:00,38.9,32.9,30.10,WSW,257,9.0,17.0,79,0.01,,,0.07,Weather View 32 v70,2013-02-23 15:09:00,
2013-02-23 07:14:00,38.9,32.9,30.10,West,266,8.0,19.0,79,0.01,,,0.07,Weather View 32 v70,2013-02-23 15:14:00,
2013-02-23 07:19:00,38.8,33.2,30.10,WNW,286,5.0,19.0,80,0.01,,,0.07,Weather View 32 v70,2013-02-23 15:19:00,
2013-02-23 07:24:00,38.8,33.2,30.10,West,276,6.0,19.0,80,0.01,,,0.07,Weather View 32 v70,2013-02-23 15:24:00,
2013-02-23 07:29:00,38.8,33.2,30.10,WSW,242,20.0,20.0,80,0.01,,,0.07,Weather View 32 v70,2013-02-23 15:29:00,
2013-02-23 07:34:00,38.9,32.9,30.10,NW,304,4.0,20.0,79,0.01,,,0.07,Weather View 32 v70,2013-02-23 15:34:00,
2013-02-23 07:39:00,39.1,32.8,30.10,West,260,1.0,20.0,78,0.01,,,0.07,Weather View 32 v70,2013-02-23 15:39:00,
2013-02-23 07:44:00,39.2,32.9,30.11,WNW,289,4.0,20.0,78,0.00,,,0.07,Weather View 32 v70,2013-02-23 15:44:00,
2013-02-23 07:49:00,39.3,32.7,30.11,WNW,295,2.0,20.0,77,0.00,,,0.07,Weather View 32 v70,2013-02-23 15:49:00,
2013-02-23 07:54:00,39.5,32.9,30.11,West,273,3.0,20.0,77,0.00,,,0.07,Weather View 32 v70,2013-02-23 15:54:00,
2013-02-23 07:59:00,39.6,32.7,30.12,WNW,293,6.0,20.0,76,0.00,,,0.07,Weather View 32 v70,2013-02-23 15:59:00,
2013-02-23 08:04:00,39.8,32.5,30.12,WNW,284,3.0,20.0,75,0.00,,,0.07,Weather View 32 v70,2013-02-23 16:04:00,
2013-02-23 08:09:00,39.9,32.3,30.12,WNW,284,2.0,20.0,74,0.00,,,0.07,Weather View 32 v70,2013-02-23 16:09:00,
2013-02-23 08:14:00,40.3,32.7,30.13,WSW,258,3.0,20.0,74,0.00,,,0.07,Weather View 32 v70,2013-02-23 16:14:00,
2013-02-23 08:19:00,40.5,33.2,30.13,NW,313,7.0,20.0,75,0.00,,,0.07,Weather View 32 v70,2013-02-23 16:19:00,
2013-02-23 08:24:00,40.5,32.9,30.13,West,280,12.0,20.0,74,0.00,,,0.07,Weather View 32 v70,2013-02-23 16:24:00,
2013-02-23 08:29:00,40.5,33.2,30.14,NW,304,6.0,20.0,75,0.00,,,0.07,Weather View 32 v70,2013-02-23 16:29:00,
2013-02-23 08:34:00,40.6,33.3,30.14,WNW,282,6.0,18.0,75,0.00,,,0.07,Weather View 32 v70,2013-02-23 16:34:00,
2013-02-23 08:39:00,40.9,32.9,30.15,West,279,5.0,16.0,73,0.00,,,0.07,Weather View 32 v70,2013-02-23 16:39:00,
2013-02-23 08:44:00,40.9,32.9,30.15,West,272,7.0,16.0,73,0.00,,,0.07,Weather View 32 v70,2013-02-23 16:44:00,
2013-02-23 08:49:00,40.5,33.2,30.16,SW,233,9.0,17.0,75,0.00,,,0.07,Weather View 32 v70,2013-02-23 16:49:00,
2013-02-23 08:54:00,40.2,33.6,30.16,West,275,5.0,19.0,77,0.01,,,0.08,Weather View 32 v70,2013-02-23 16:54:00,
2013-02-23 08:59:00,40.3,34.0,30.17,WSW,252,0.0,19.0,78,0.01,,,0.08,Weather View 32 v70,2013-02-23 16:59:00,
2013-02-23 09:04:00,40.3,34.0,30.17,WNW,287,3.0,19.0,78,0.01,,,0.08,Weather View 32 v70,2013-02-23 17:04:00,
2013-02-23 09:09:00,40.3,34.0,30.17,West,263,6.0,19.0,78,0.01,,,0.08,Weather View 32 v70,2013-02-23 17:09:00,
2013-02-23 09:14:00,40.6,33.9,30.17,WNW,294,3.0,19.0,77,0.01,,,0.08,Weather View 32 v70,2013-02-23 17:14:00,
2013-02-23 09:19:00,41.1,34.4,30.17,West,272,4.0,19.0,77,0.01,,,0.08,Weather View 32 v70,2013-02-23 17:19:00,
2013-02-23 09:24:00,41.3,33.6,30.17,WNW,289,7.0,19.0,74,0.01,,,0.08,Weather View 32 v70,2013-02-23 17:24:00,
2013-02-23 09:29:00,41.6,34.3,30.18,West,259,3.0,19.0,75,0.01,,,0.08,Weather View 32 v70,2013-02-23 17:29:00,
2013-02-23 09:34:00,41.6,33.6,30.18,WNW,301,7.0,19.0,73,0.01,,,0.08,Weather View 32 v70,2013-02-23 17:34:00,
2013-02-23 09:39:00,41.8,33.8,30.18,WNW,282,2.0,19.0,73,0.01,,,0.08,Weather View 32 v70,2013-02-23 17:39:00,
2013-02-23 09:44:00,41.8,33.8,30.18,WNW,287,2.0,19.0,73,0.01,,,0.08,Weather View 32 v70,2013-02-23 17:44:00,
2013-02-23 09:49:00,41.9,33.9,30.18,West,264,2.0,19.0,73,0.01,,,0.08,Weather View 32 v70,2013-02-23 17:49:00,
2013-02-23 09:54:00,42.2,34.2,30.18,WNW,292,4.0,16.0,73,0.00,,,0.08,Weather View 32 v70,2013-02-23 17:54:00,
2013-02-23 09:59:00,42.3,34.3,30.18,SW,222,5.0,16.0,73,0.00,,,0.08,Weather View 32 v70,2013-02-23 17:59:00,
2013-02-23 10:04:00,42.6,33.8,30.18,WSW,242,7.0,16.0,71,0.00,,,0.08,Weather View 32 v70,2013-02-23 18:04:00,
2013-02-23 10:09:00,42.2,33.5,30.18,WSW,250,7.0,17.0,71,0.00,,,0.08,Weather View 32 v70,2013-02-23 18:09:00,
2013-02-23 10:14:00,42.1,33.0,30.18,NW,305,4.0,19.0,70,0.00,,,0.08,Weather View 32 v70,2013-02-23 18:14:00,
2013-02-23 10:19:00,42.2,33.5,30.19,WNW,302,3.0,19.0,71,0.00,,,0.08,Weather View 32 v70,2013-02-23 18:19:00,
2013-02-23 10:24:00,41.9,33.5,30.19,WNW,289,3.0,19.0,72,0.00,,,0.08,Weather View 32 v70,2013-02-23 18:24:00,
2013-02-23 10:29:00,42.2,33.1,30.19,West,281,1.0,19.0,70,0.00,,,0.08,Weather View 32 v70,2013-02-23 18:29:00,
2013-02-23 10:34:00,42.8,33.7,30.19,West,268,8.0,19.0,70,0.00,,,0.08,Weather View 32 v70,2013-02-23 18:34:00,
2013-02-23 10:39:00,42.9,34.5,30.19,NW,310,3.0,19.0,72,0.00,,,0.08,Weather View 32 v70,2013-02-23 18:39:00,
2013-02-23 10:44:00,43.2,33.7,30.19,West,261,2.0,19.0,69,0.00,,,0.08,Weather View 32 v70,2013-02-23 18:44:00,
2013-02-23 10:49:00,43.8,34.3,30.20,WSW,244,11.0,19.0,69,0.00,,,0.08,Weather View 32 v70,2013-02-23 18:49:00,
2013-02-23 10:54:00,43.8,33.5,30.20,NW,304,3.0,19.0,67,0.00,,,0.08,Weather View 32 v70,2013-02-23 18:54:00,
2013-02-23 10:59:00,43.5,33.3,30.20,West,263,11.0,19.0,67,0.00,,,0.08,Weather View 32 v70,2013-02-23 18:59:00,
2013-02-23 11:04:00,43.5,33.6,30.20,West,270,3.0,19.0,68,0.00,,,0.08,Weather View 32 v70,2013-02-23 19:04:00,
2013-02-23 11:09:00,43.8,33.5,30.20,WNW,288,5.0,19.0,67,0.00,,,0.08,Weather View 32 v70,2013-02-23 19:09:00,
2013-02-23 11:14:00,43.9,33.3,30.21,West,268,6.0,18.0,66,0.00,,,0.08,Weather View 32 v70,2013-02-23 19:14:00,
2013-02-23 11:19:00,43.9,33.6,30.21,WSW,241,4.0,18.0,67,0.00,,,0.08,Weather View 32 v70,2013-02-23 19:19:00,
2013-02-23 11:24:00,43.6,33.4,30.21,West,272,2.0,18.0,67,0.00,,,0.08,Weather View 32 v70,2013-02-23 19:24:00,
2013-02-23 11:29:00,43.3,33.4,30.21,WSW,245,8.0,18.0,68,0.00,,,0.08,Weather View 32 v70,2013-02-23 19:29:00,
2013-02-23 11:34:00,43.3,33.4,30.21,West,275,7.0,18.0,68,0.00,,,0.08,Weather View 32 v70,2013-02-23 19:34:00,
2013-02-23 11:39:00,43.5,32.9,30.21,WNW,302,8.0,20.0,66,0.00,,,0.08,Weather View 32 v70,2013-02-23 19:39:00,
2013-02-23 11:44:00,43.5,32.9,30.21,WNW,288,3.0,20.0,66,0.00,,,0.08,Weather View 32 v70,2013-02-23 19:44:00,
2013-02-23 11:49:00,43.6,33.0,30.22,WSW,251,11.0,20.0,66,0.00,,,0.08,Weather View 32 v70,2013-02-23 19:49:00,
2013-02-23 11:54:00,43.3,32.7,30.22,West,279,7.0,20.0,66,0.00,,,0.08,Weather View 32 v70,2013-02-23 19:54:00,
2013-02-23 11:59:00,43.3,32.7,30.21,WNW,290,2.0,20.0,66,0.00,,,0.08,Weather View 32 v70,2013-02-23 19:59:00,
2013-02-23 12:04:00,43.3,33.1,30.22,West,277,6.0,20.0,67,0.00,,,0.08,Weather View 32 v70,2013-02-23 20:04:00,
2013-02-23 12:09:00,43.1,32.9,30.22,WNW,300,4.0,24.0,67,0.00,,,0.08,Weather View 32 v70,2013-02-23 20:09:00,
2013-02-23 12:14:00,42.9,32.7,30.22,WNW,290,8.0,24.0,67,0.00,,,0.08,Weather View 32 v70,2013-02-23 20:14:00,
2013-02-23 12:19:00,43.2,33.7,30.22,WSW,252,6.0,24.0,69,0.00,,,0.08,Weather View 32 v70,2013-02-23 20:19:00,
2013-02-23 12:24:00,44.1,33.5,30.22,West,273,9.0,24.0,66,0.00,,,0.08,Weather View 32 v70,2013-02-23 20:24:00,
2013-02-23 12:29:00,44.6,33.2,30.22,NW,304,6.0,24.0,64,0.00,,,0.08,Weather View 32 v70,2013-02-23 20:29:00,
2013-02-23 12:33:00,44.8,34.1,30.22,WSW,251,6.0,24.0,66,0.00,,,0.08,Weather View 32 v70,2013-02-23 20:33:00,
2013-02-23 12:38:00,45.4,33.1,30.22,WNW,301,9.0,24.0,62,0.00,,,0.08,Weather View 32 v70,2013-02-23 20:38:00,
2013-02-23 12:43:00,45.7,34.2,30.22,West,263,9.0,24.0,64,0.00,,,0.08,Weather View 32 v70,2013-02-23 20:43:00,
2013-02-23 12:48:00,45.2,32.9,30.22,West,267,14.0,24.0,62,0.00,,,0.08,Weather View 32 v70,2013-02-23 20:48:00,
2013-02-23 12:53:00,44.9,33.0,30.22,WNW,302,6.0,24.0,63,0.00,,,0.08,Weather View 32 v70,2013-02-23 20:53:00,
2013-02-23 12:58:00,44.9,32.7,30.21,West,260,6.0,24.0,62,0.00,,,0.08,Weather View 32 v70,2013-02-23 20:58:00,
2013-02-23 13:03:00,44.9,32.2,30.22,West,277,6.0,24.0,61,0.00,,,0.08,Weather View 32 v70,2013-02-23 21:03:00,
2013-02-23 13:08:00,44.6,32.0,30.21,WSW,244,8.0,23.0,61,0.00,,,0.08,Weather View 32 v70,2013-02-23 21:08:00,
2013-02-23 13:13:00,44.3,31.3,30.21,NW,304,4.0,23.0,60,0.00,,,0.08,Weather View 32 v70,2013-02-23 21:13:00,
2013-02-23 13:18:00,44.6,32.8,30.22,West,279,2.0,23.0,63,0.00,,,0.08,Weather View 32 v70,2013-02-23 21:18:00,
2013-02-23 13:23:00,44.6,32.8,30.22,WNW,288,7.0,23.0,63,0.00,,,0.08,Weather View 32 v70,2013-02-23 21:23:00,
2013-02-23 13:28:00,44.5,32.3,30.22,WNW,292,5.0,23.0,62,0.00,,,0.08,Weather View 32 v70,2013-02-23 21:28:00,
2013-02-23 13:33:00,44.3,31.3,30.22,West,280,4.0,23.0,60,0.00,,,0.08,Weather View 32 v70,2013-02-23 21:33:00,
2013-02-23 13:38:00,44.3,32.1,30.22,West,259,2.0,23.0,62,0.00,,,0.08,Weather View 32 v70,2013-02-23 21:38:00,
2013-02-23 13:43:00,44.8,32.6,30.21,NW,306,5.0,23.0,62,0.00,,,0.08,Weather View 32 v70,2013-02-23 21:43:00,
2013-02-23 13:48:00,45.1,32.8,30.22,NW,307,7.0,23.0,62,0.00,,,0.08,Weather View 32 v70,2013-02-23 21:48:00,
2013-02-23 13:53:00,44.5,33.1,30.22,SW,234,7.0,23.0,64,0.00,,,0.08,Weather View 32 v70,2013-02-23 21:53:00,
2013-02-23 13:58:00,43.8,33.5,30.23,NW,324,8.0,23.0,67,0.00,,,0.08,Weather View 32 v70,2013-02-23 21:58:00,
2013-02-23 14:03:00,43.6,33.4,30.23,West,279,4.0,23.0,67,0.00,,,0.08,Weather View 32 v70,2013-02-23 22:03:00,
2013-02-23 14:08:00,43.6,33.7,30.23,WNW,295,7.0,22.0,68,0.00,,,0.08,Weather View 32 v70,2013-02-23 22:08:00,
2013-02-23 14:13:00,43.8,33.9,30.23,West,278,7.0,22.0,68,0.00,,,0.08,Weather View 32 v70,2013-02-23 22:13:00,
2013-02-23 14:18:00,43.8,33.9,30.23,NW,305,3.0,22.0,68,0.00,,,0.08,Weather View 32 v70,2013-02-23 22:18:00,
2013-02-23 14:23:00,44.1,34.2,30.24,West,279,4.0,21.0,68,0.00,,,0.08,Weather View 32 v70,2013-02-23 22:23:00,
2013-02-23 14:28:00,44.2,34.3,30.23,SSW,204,3.0,21.0,68,0.00,,,0.08,Weather View 32 v70,2013-02-23 22:28:00,
2013-02-23 14:33:00,44.1,33.5,30.24,West,259,13.0,20.0,66,0.00,,,0.08,Weather View 32 v70,2013-02-23 22:33:00,
2013-02-23 14:38:00,43.8,33.2,30.24,West,261,3.0,20.0,66,0.00,,,0.08,Weather View 32 v70,2013-02-23 22:38:00,
2013-02-23 14:43:00,43.6,32.6,30.24,West,277,2.0,20.0,65,0.00,,,0.08,Weather View 32 v70,2013-02-23 22:43:00,
2013-02-23 14:48:00,43.8,32.4,30.24,NW,311,2.0,20.0,64,0.00,,,0.08,Weather View 32 v70,2013-02-23 22:48:00,
2013-02-23 14:53:00,44.3,32.5,30.24,West,279,4.0,20.0,63,0.00,,,0.08,Weather View 32 v70,2013-02-23 22:53:00,
2013-02-23 14:58:00,44.2,32.8,30.24,West,281,4.0,20.0,64,0.00,,,0.08,Weather View 32 v70,2013-02-23 22:58:00,
2013-02-23 15:03:00,44.1,33.1,30.25,West,271,7.0,20.0,65,0.00,,,0.08,Weather View 32 v70,2013-02-23 23:03:00,
2013-02-23 15:08:00,43.5,32.5,30.25,West,262,9.0,20.0,65,0.00,,,0.08,Weather View 32 v70,2013-02-23 23:08:00,
2013-02-23 15:13:00,43.3,33.1,30.25,West,264,3.0,20.0,67,0.00,,,0.08,Weather View 32 v70,2013-02-23 23:13:00,
2013-02-23 15:18:00,43.3,32.3,30.25,WSW,257,8.0,20.0,65,0.00,,,0.08,Weather View 32 v70,2013-02-23 23:18:00,
2013-02-23 15:23:00,43.2,32.2,30.25,West,277,3.0,20.0,65,0.00,,,0.08,Weather View 32 v70,2013-02-23 23:23:00,
2013-02-23 15:28:00,43.5,32.5,30.26,West,271,16.0,20.0,65,0.00,,,0.08,Weather View 32 v70,2013-02-23 23:28:00,
2013-02-23 15:33:00,43.6,32.6,30.25,WSW,254,5.0,20.0,65,0.00,,,0.08,Weather View 32 v70,2013-02-23 23:33:00,
2013-02-23 15:38:00,43.6,32.2,30.25,WNW,297,10.0,19.0,64,0.00,,,0.08,Weather View 32 v70,2013-02-23 23:38:00,
2013-02-23 15:43:00,43.6,32.2,30.24,NW,315,4.0,19.0,64,0.00,,,0.08,Weather View 32 v70,2013-02-23 23:43:00,
2013-02-23 15:48:00,43.8,31.6,30.25,WSW,250,7.0,19.0,62,0.00,,,0.08,Weather View 32 v70,2013-02-23 23:48:00,
2013-02-23 15:53:00,44.1,31.9,30.25,NNW,332,11.0,19.0,62,0.00,,,0.08,Weather View 32 v70,2013-02-23 23:53:00,
2013-02-23 15:58:00,44.3,32.1,30.25,West,274,7.0,21.0,62,0.00,,,0.08,Weather View 32 v70,2013-02-23 23:58:00,
2013-02-23 16:03:00,44.2,32.0,30.25,WSW,240,14.0,21.0,62,0.00,,,0.08,Weather View 32 v70,2013-02-24 00:03:00,
2013-02-23 16:08:00,44.1,31.9,30.25,WNW,298,6.0,21.0,62,0.00,,,0.08,Weather View 32 v70,2013-02-24 00:08:00,
2013-02-23 16:13:00,43.8,32.4,30.25,WNW,292,10.0,21.0,64,0.00,,,0.08,Weather View 32 v70,2013-02-24 00:13:00,
2013-02-23 16:18:00,42.6,33.8,30.25,WSW,238,15.0,21.0,71,0.00,,,0.08,Weather View 32 v70,2013-02-24 00:18:00,
2013-02-23 16:23:00,41.1,32.4,30.26,WSW,249,8.0,27.0,71,0.00,,,0.08,Weather View 32 v70,2013-02-24 00:23:00,
2013-02-23 16:28:00,40.6,33.0,30.26,NW,306,11.0,27.0,74,0.00,,,0.08,Weather View 32 v70,2013-02-24 00:28:00,
2013-02-23 16:33:00,40.1,32.1,30.25,West,281,2.0,27.0,73,0.00,,,0.08,Weather View 32 v70,2013-02-24 00:33:00,
2013-02-23 16:38:00,39.9,32.9,30.26,NW,319,7.0,27.0,76,0.00,,,0.08,Weather View 32 v70,2013-02-24 00:38:00,
2013-02-23 16:43:00,39.8,33.8,30.26,West,265,7.0,27.0,79,0.00,,,0.08,Weather View 32 v70,2013-02-24 00:43:00,
2013-02-23 16:48:00,39.9,33.9,30.26,WNW,300,5.0,27.0,79,0.00,,,0.08,Weather View 32 v70,2013-02-24 00:48:00,
2013-02-23 16:53:00,40.1,33.8,30.28,NNE,31,0.0,27.0,78,0.00,,,0.08,Weather View 32 v70,2013-02-24 00:53:00,
2013-02-23 16:58:00,40.3,33.7,30.29,East,98,0.0,27.0,77,0.00,,,0.08,Weather View 32 v70,2013-02-24 00:58:00,
2013-02-23 17:03:00,40.5,33.9,30.28,SSW,210,3.0,27.0,77,0.00,,,0.08,Weather View 32 v70,2013-02-24 01:03:00,
2013-02-23 17:08:00,40.3,33.3,30.29,West,260,8.0,27.0,76,0.00,,,0.08,Weather View 32 v70,2013-02-24 01:08:00,
2013-02-23 17:13:00,40.3,33.7,30.28,NW,317,3.0,27.0,77,0.00,,,0.08,Weather View 32 v70,2013-02-24 01:13:00,
2013-02-23 17:18:00,40.3,33.3,30.28,West,267,5.0,27.0,76,0.00,,,0.08,Weather View 32 v70,2013-02-24 01:18:00,
2013-02-23 17:23:00,40.2,33.6,30.28,West,271,2.0,27.0,77,0.00,,,0.08,Weather View 32 v70,2013-02-24 01:23:00,
2013-02-23 17:28:00,40.2,33.6,30.28,SSW,211,8.0,23.0,77,0.00,,,0.08,Weather View 32 v70,2013-02-24 01:28:00,
2013-02-23 17:33:00,40.3,33.3,30.29,WSW,250,0.0,23.0,76,0.00,,,0.08,Weather View 32 v70,2013-02-24 01:33:00,
2013-02-23 17:38:00,40.5,33.5,30.29,WSW,245,7.0,23.0,76,0.00,,,0.08,Weather View 32 v70,2013-02-24 01:38:00,
2013-02-23 17:43:00,40.5,33.5,30.29,NW,304,0.0,22.0,76,0.00,,,0.08,Weather View 32 v70,2013-02-24 01:43:00,
2013-02-23 17:48:00,40.2,33.6,30.29,SW,214,11.0,22.0,77,0.00,,,0.08,Weather View 32 v70,2013-02-24 01:48:00,
2013-02-23 17:53:00,40.1,33.8,30.29,NNW,336,5.0,22.0,78,0.00,,,0.08,Weather View 32 v70,2013-02-24 01:53:00,
2013-02-23 17:58:00,40.2,33.6,30.30,NW,309,3.0,22.0,77,0.00,,,0.08,Weather View 32 v70,2013-02-24 01:58:00,
2013-02-23 18:03:00,40.1,33.8,30.30,WSW,238,17.0,22.0,78,0.00,,,0.08,Weather View 32 v70,2013-02-24 02:03:00,
2013-02-23 18:08:00,40.2,33.9,30.30,West,274,2.0,22.0,78,0.00,,,0.08,Weather View 32 v70,2013-02-24 02:08:00,
2013-02-23 18:13:00,40.2,33.6,30.31,West,261,6.0,22.0,77,0.00,,,0.08,Weather View 32 v70,2013-02-24 02:13:00,
2013-02-23 18:18:00,40.2,33.6,30.31,WNW,295,7.0,22.0,77,0.00,,,0.08,Weather View 32 v70,2013-02-24 02:18:00,
2013-02-23 18:23:00,40.2,33.6,30.31,SW,236,1.0,22.0,77,0.00,,,0.08,Weather View 32 v70,2013-02-24 02:23:00,
2013-02-23 18:28:00,40.1,33.5,30.31,WSW,242,3.0,22.0,77,0.00,,,0.08,Weather View 32 v70,2013-02-24 02:28:00,
2013-02-23 18:33:00,40.1,33.5,30.32,West,259,5.0,22.0,77,0.00,,,0.08,Weather View 32 v70,2013-02-24 02:33:00,
2013-02-23 18:38:00,40.2,33.2,30.32,WSW,241,6.0,22.0,76,0.00,,,0.08,Weather View 32 v70,2013-02-24 02:38:00,
2013-02-23 18:43:00,40.5,32.9,30.33,West,276,8.0,22.0,74,0.00,,,0.08,Weather View 32 v70,2013-02-24 02:43:00,
2013-02-23 18:48:00,40.5,32.9,30.33,NW,321,6.0,22.0,74,0.00,,,0.08,Weather View 32 v70,2013-02-24 02:48:00,
2013-02-23 18:53:00,40.2,32.9,30.33,West,264,2.0,22.0,75,0.00,,,0.08,Weather View 32 v70,2013-02-24 02:53:00,
2013-02-23 18:58:00,40.2,32.9,30.33,NW,317,6.0,22.0,75,0.00,,,0.08,Weather View 32 v70,2013-02-24 02:58:00,
2013-02-23 19:03:00,40.2,32.9,30.33,North,0,10.0,22.0,75,0.00,,,0.08,Weather View 32 v70,2013-02-24 03:03:00,
2013-02-23 19:08:00,40.2,32.9,30.33,WNW,302,1.0,22.0,75,0.00,,,0.08,Weather View 32 v70,2013-02-24 03:08:00,
2013-02-23 19:13:00,40.2,32.9,30.33,SW,228,8.0,22.0,75,0.00,,,0.08,Weather View 32 v70,2013-02-24 03:13:00,
2013-02-23 19:18:00,40.3,33.0,30.33,WSW,257,4.0,24.0,75,0.00,,,0.08,Weather View 32 v70,2013-02-24 03:18:00,
2013-02-23 19:23:00,40.2,32.9,30.33,WSW,257,5.0,24.0,75,0.00,,,0.08,Weather View 32 v70,2013-02-24 03:23:00,
2013-02-23 19:28:00,40.2,32.9,30.34,SW,227,6.0,24.0,75,0.00,,,0.08,Weather View 32 v70,2013-02-24 03:28:00,
2013-02-23 19:33:00,40.3,33.0,30.35,West,273,3.0,24.0,75,0.00,,,0.08,Weather View 32 v70,2013-02-24 03:33:00,
2013-02-23 19:38:00,40.3,33.0,30.35,West,274,1.0,24.0,75,0.00,,,0.08,Weather View 32 v70,2013-02-24 03:38:00,
2013-02-23 19:43:00,40.3,33.0,30.35,West,268,10.0,24.0,75,0.00,,,0.08,Weather View 32 v70,2013-02-24 03:43:00,
2013-02-23 19:48:00,40.3,33.3,30.35,West,273,2.0,24.0,76,0.00,,,0.08,Weather View 32 v70,2013-02-24 03:48:00,
2013-02-23 19:53:00,40.2,33.2,30.35,West,265,2.0,24.0,76,0.00,,,0.08,Weather View 32 v70,2013-02-24 03:53:00,
2013-02-23 19:58:00,40.1,33.1,30.35,West,261,1.0,24.0,76,0.00,,,0.08,Weather View 32 v70,2013-02-24 03:58:00,
2013-02-23 20:03:00,40.1,33.1,30.35,WSW,250,4.0,24.0,76,0.00,,,0.08,Weather View 32 v70,2013-02-24 04:03:00,
2013-02-23 20:08:00,40.3,33.0,30.36,WNW,298,6.0,24.0,75,0.00,,,0.08,Weather View 32 v70,2013-02-24 04:08:00,
2013-02-23 20:13:00,40.2,33.2,30.35,WNW,291,2.0,24.0,76,0.00,,,0.08,Weather View 32 v70,2013-02-24 04:13:00,
2013-02-23 20:18:00,40.2,32.6,30.35,WNW,295,3.0,23.0,74,0.00,,,0.08,Weather View 32 v70,2013-02-24 04:18:00,
2013-02-23 20:23:00,40.1,32.8,30.35,WSW,250,1.0,16.0,75,0.00,,,0.08,Weather View 32 v70,2013-02-24 04:23:00,
2013-02-23 20:28:00,40.1,32.8,30.36,SW,221,2.0,16.0,75,0.00,,,0.08,Weather View 32 v70,2013-02-24 04:28:00,
2013-02-23 20:33:00,40.1,32.5,30.36,West,273,5.0,16.0,74,0.00,,,0.08,Weather View 32 v70,2013-02-24 04:33:00,
2013-02-23 20:38:00,40.1,33.1,30.37,West,276,4.0,16.0,76,0.00,,,0.08,Weather View 32 v70,2013-02-24 04:38:00,
2013-02-23 20:43:00,40.1,33.1,30.37,WNW,294,2.0,16.0,76,0.00,,,0.08,Weather View 32 v70,2013-02-24 04:43:00,
2013-02-23 20:48:00,39.9,32.9,30.37,WNW,297,2.0,16.0,76,0.00,,,0.08,Weather View 32 v70,2013-02-24 04:48:00,
2013-02-23 20:53:00,40.1,33.1,30.37,WNW,297,1.0,16.0,76,0.00,,,0.08,Weather View 32 v70,2013-02-24 04:53:00,
2013-02-23 20:58:00,40.1,33.1,30.38,WNW,284,1.0,13.0,76,0.00,,,0.08,Weather View 32 v70,2013-02-24 04:58:00,
2013-02-23 21:00:00,40.2,33.2,30.38,WNW,300,0.0,13.0,76,0.00,,,0.08,Weather View 32 v70,2013-02-24 05:00:00,
2013-02-23 21:05:00,40.2,32.9,30.38,West,264,0.0,13.0,75,0.00,,,0.08,Weather View 32 v70,2013-02-24 05:05:00,
2013-02-23 21:10:00,40.3,33.0,30.38,West,271,5.0,13.0,75,0.00,,,0.08,Weather View 32 v70,2013-02-24 05:10:00,
2013-02-23 21:15:00,40.5,32.9,30.38,WNW,284,3.0,12.0,74,0.00,,,0.08,Weather View 32 v70,2013-02-24 05:15:00,
2013-02-23 21:20:00,40.5,32.9,30.38,West,278,2.0,12.0,74,0.00,,,0.08,Weather View 32 v70,2013-02-24 05:20:00,
2013-02-23 21:25:00,40.5,32.9,30.38,WSW,243,4.0,12.0,74,0.00,,,0.08,Weather View 32 v70,2013-02-24 05:25:00,
2013-02-23 21:30:00,40.6,32.6,30.38,WSW,252,8.0,12.0,73,0.00,,,0.08,Weather View 32 v70,2013-02-24 05:30:00,
2013-02-23 21:35:00,40.6,32.6,30.37,WNW,294,4.0,13.0,73,0.00,,,0.08,Weather View 32 v70,2013-02-24 05:35:00,
2013-02-23 21:40:00,40.6,32.6,30.38,WNW,284,3.0,13.0,73,0.00,,,0.08,Weather View 32 v70,2013-02-24 05:40:00,
2013-02-23 21:45:00,40.6,32.3,30.38,WNW,291,5.0,13.0,72,0.00,,,0.08,Weather View 32 v70,2013-02-24 05:45:00,
2013-02-23 21:50:00,40.6,32.6,30.38,WNW,286,1.0,13.0,73,0.00,,,0.08,Weather View 32 v70,2013-02-24 05:50:00,
2013-02-23 21:55:00,40.5,32.5,30.37,West,275,8.0,13.0,73,0.00,,,0.08,Weather View 32 v70,2013-02-24 05:55:00,
2013-02-23 22:00:00,40.3,32.7,30.37,WSW,252,4.0,13.0,74,0.00,,,0.08,Weather View 32 v70,2013-02-24 06:00:00,
2013-02-23 22:05:00,40.3,32.7,30.37,West,280,3.0,13.0,74,0.00,,,0.08,Weather View 32 v70,2013-02-24 06:05:00,
2013-02-23 22:10:00,40.3,32.7,30.37,WNW,284,1.0,13.0,74,0.00,,,0.08,Weather View 32 v70,2013-02-24 06:10:00,
2013-02-23 22:15:00,40.3,32.7,30.37,WNW,290,2.0,13.0,74,0.00,,,0.08,Weather View 32 v70,2013-02-24 06:15:00,
2013-02-23 22:20:00,40.3,32.7,30.37,WNW,300,1.0,13.0,74,0.00,,,0.08,Weather View 32 v70,2013-02-24 06:20:00,
2013-02-23 22:25:00,40.3,32.7,30.38,WNW,296,6.0,13.0,74,0.00,,,0.08,Weather View 32 v70,2013-02-24 06:25:00,
2013-02-23 22:30:00,40.5,32.5,30.38,WNW,303,6.0,13.0,73,0.00,,,0.08,Weather View 32 v70,2013-02-24 06:30:00,
2013-02-23 22:35:00,40.5,32.2,30.38,West,269,1.0,12.0,72,0.00,,,0.08,Weather View 32 v70,2013-02-24 06:35:00,
2013-02-23 22:40:00,40.5,32.5,30.38,West,269,0.0,12.0,73,0.00,,,0.08,Weather View 32 v70,2013-02-24 06:40:00,
2013-02-23 22:45:00,40.5,32.5,30.38,West,264,1.0,12.0,73,0.00,,,0.08,Weather View 32 v70,2013-02-24 06:45:00,
2013-02-23 22:50:00,40.3,32.3,30.38,West,264,1.0,12.0,73,0.00,,,0.08,Weather View 32 v70,2013-02-24 06:50:00,
2013-02-23 22:55:00,40.3,32.3,30.38,West,265,0.0,12.0,73,0.00,,,0.08,Weather View 32 v70,2013-02-24 06:55:00,
2013-02-23 23:00:00,40.3,32.3,30.38,West,265,0.0,12.0,73,0.00,,,0.08,Weather View 32 v70,2013-02-24 07:00:00,
2013-02-23 23:05:00,40.2,32.2,30.38,West,265,0.0,12.0,73,0.00,,,0.08,Weather View 32 v70,2013-02-24 07:05:00,
2013-02-23 23:10:00,40.1,32.5,30.38,West,262,2.0,9.0,74,0.00,,,0.08,Weather View 32 v70,2013-02-24 07:10:00,
2013-02-23 23:15:00,40.1,32.8,30.38,WSW,244,0.0,9.0,75,0.00,,,0.08,Weather View 32 v70,2013-02-24 07:15:00,
2013-02-23 23:20:00,39.9,32.9,30.39,West,268,1.0,9.0,76,0.00,,,0.08,Weather View 32 v70,2013-02-24 07:20:00,
2013-02-23 23:25:00,40.1,33.1,30.39,West,265,2.0,10.0,76,0.00,,,0.08,Weather View 32 v70,2013-02-24 07:25:00,
2013-02-23 23:30:00,40.2,33.2,30.39,WNW,286,5.0,10.0,76,0.00,,,0.08,Weather View 32 v70,2013-02-24 07:30:00,
2013-02-23 23:35:00,40.2,33.2,30.39,West,281,3.0,11.0,76,0.00,,,0.08,Weather View 32 v70,2013-02-24 07:35:00,
2013-02-23 23:40:00,40.2,33.2,30.39,West,280,1.0,11.0,76,0.00,,,0.08,Weather View 32 v70,2013-02-24 07:40:00,
2013-02-23 23:45:00,40.2,32.9,30.39,WNW,294,2.0,11.0,75,0.00,,,0.08,Weather View 32 v70,2013-02-24 07:45:00,
2013-02-23 23:50:00,40.2,32.9,30.39,WNW,294,1.0,11.0,75,0.00,,,0.08,Weather View 32 v70,2013-02-24 07:50:00,
2013-02-23 23:55:00,40.2,32.6,30.39,WNW,293,3.0,11.0,74,0.00,,,0.08,Weather View 32 v70,2013-02-24 07:55:00,